Time,TemperatureF,DewpointF,PressureIn,WindDirection,WindDirectionDegrees,WindSpeedMPH,WindSpeedGustMPH,Humidity,HourlyPrecipIn,Conditions,Clouds,dailyrainin,SolarRadiationWatts/m^2,SoftwareType,DateUTC
2013-02-09 00:21:00,60.0,60.0,-100.00,NNE,14,3.0,6.0,100,0.00,,,0.00,0.000000,,2013-02-09 10:21:00,
2013-02-09 00:31:00,60.0,60.0,-100.00,NNE,14,3.0,6.0,100,0.00,,,0.00,0.000000,,2013-02-09 10:31:00,
2013-02-09 00:41:00,60.0,60.0,-100.00,NNE,14,3.0,6.0,100,0.00,,,0.00,0.000000,,2013-02-09 10:41:00,
2013-02-09 00:51:00,60.0,60.0,-100.00,NNE,14,3.0,6.0,100,0.00,,,0.00,0.000000,,2013-02-09 10:51:00,
2013-02-09 01:21:00,61.0,61.0,-100.00,NNE,28,3.0,5.0,100,0.00,,,0.00,0.000000,,2013-02-09 11:21:00,
2013-02-09 01:31:00,61.0,61.0,-100.00,NNE,28,3.0,5.0,100,0.00,,,0.00,0.000000,,2013-02-09 11:31:00,
2013-02-09 01:41:00,61.0,61.0,-100.00,NNE,28,3.0,5.0,100,0.00,,,0.00,0.000000,,2013-02-09 11:41:00,
2013-02-09 01:52:00,61.0,61.0,-100.00,NNE,28,3.0,5.0,100,0.00,,,0.00,0.000000,,2013-02-09 11:52:00,
2013-02-09 02:21:00,59.0,59.0,-100.00,NNE,24,4.0,5.0,100,0.00,,,0.00,0.000000,,2013-02-09 12:21:00,
2013-02-09 02:32:00,59.0,59.0,-100.00,NNE,24,4.0,5.0,100,0.00,,,0.00,0.000000,,2013-02-09 12:32:00,
2013-02-09 02:42:00,59.0,59.0,-100.00,NNE,24,4.0,5.0,100,0.00,,,0.00,0.000000,,2013-02-09 12:42:00,
2013-02-09 02:52:00,59.0,59.0,-100.00,NNE,24,4.0,5.0,100,0.00,,,0.00,0.000000,,2013-02-09 12:52:00,
2013-02-09 03:21:00,60.0,60.0,-100.00,NNE,33,3.0,6.0,100,0.00,,,0.00,0.000000,,2013-02-09 13:21:00,
2013-02-09 03:32:00,60.0,60.0,-100.00,NNE,33,3.0,6.0,100,0.00,,,0.00,0.000000,,2013-02-09 13:32:00,
2013-02-09 03:42:00,60.0,60.0,-100.00,NNE,33,3.0,6.0,100,0.00,,,0.00,0.000000,,2013-02-09 13:42:00,
2013-02-09 03:51:00,60.0,60.0,-100.00,NNE,33,3.0,6.0,100,0.00,,,0.00,0.000000,,2013-02-09 13:51:00,
2013-02-09 04:21:00,59.0,59.0,-100.00,NNE,16,4.0,6.0,100,0.00,,,0.00,0.000000,,2013-02-09 14:21:00,
2013-02-09 04:31:00,59.0,59.0,-100.00,NNE,16,4.0,6.0,100,0.00,,,0.00,0.000000,,2013-02-09 14:31:00,
2013-02-09 04:41:00,59.0,59.0,-100.00,NNE,16,4.0,6.0,100,0.00,,,0.00,0.000000,,2013-02-09 14:41:00,
2013-02-09 04:52:00,59.0,59.0,-100.00,NNE,16,4.0,6.0,100,0.00,,,0.00,0.000000,,2013-02-09 14:52:00,
2013-02-09 05:21:00,60.0,60.0,-100.00,NE,34,3.0,6.0,100,0.00,,,0.00,0.000000,,2013-02-09 15:21:00,
2013-02-09 05:31:00,60.0,60.0,-100.00,NE,34,3.0,6.0,100,0.00,,,0.00,0.000000,,2013-02-09 15:31:00,
2013-02-09 05:41:00,60.0,60.0,-100.00,NE,34,3.0,6.0,100,0.00,,,0.00,0.000000,,2013-02-09 15:41:00,
2013-02-09 05:51:00,60.0,60.0,-100.00,NE,34,3.0,6.0,100,0.00,,,0.00,0.000000,,2013-02-09 15:51:00,
2013-02-09 06:22:00,59.0,59.0,-100.00,NNE,20,4.0,7.0,100,0.00,,,0.00,0.000000,,2013-02-09 16:22:00,
2013-02-09 06:31:00,59.0,59.0,-100.00,NNE,20,4.0,7.0,100,0.00,,,0.00,0.000000,,2013-02-09 16:31:00,
2013-02-09 06:41:00,59.0,59.0,-100.00,NNE,20,4.0,7.0,100,0.00,,,0.00,0.000000,,2013-02-09 16:41:00,
2013-02-09 06:51:00,59.0,59.0,-100.00,NNE,20,4.0,7.0,100,0.00,,,0.00,0.000000,,2013-02-09 16:51:00,
2013-02-09 07:21:00,59.0,59.0,-100.00,NE,56,4.0,6.0,100,0.00,,,0.00,0.000000,,2013-02-09 17:21:00,
2013-02-09 07:32:00,59.0,59.0,-100.00,NE,56,4.0,6.0,100,0.00,,,0.00,0.000000,,2013-02-09 17:32:00,
2013-02-09 07:41:00,59.0,59.0,-100.00,NE,56,4.0,6.0,100,0.00,,,0.00,0.000000,,2013-02-09 17:41:00,
2013-02-09 07:52:00,59.0,59.0,-100.00,NE,56,4.0,6.0,100,0.00,,,0.00,0.000000,,2013-02-09 17:52:00,
2013-02-09 08:23:00,61.0,61.0,-100.00,NNE,23,4.0,7.0,100,0.00,,,0.00,28.000000,,2013-02-09 18:23:00,
2013-02-09 08:32:00,61.0,61.0,-100.00,NNE,23,4.0,7.0,100,0.00,,,0.00,28.000000,,2013-02-09 18:32:00,
2013-02-09 08:41:00,61.0,61.0,-100.00,NNE,23,4.0,7.0,100,0.00,,,0.00,28.000000,,2013-02-09 18:41:00,
2013-02-09 08:51:00,61.0,61.0,-100.00,NNE,23,4.0,7.0,100,0.00,,,0.00,28.000000,,2013-02-09 18:51:00,
2013-02-09 09:22:00,66.0,65.0,-100.00,NNE,32,3.0,8.0,98,0.00,,,-99.99,185.000000,,2013-02-09 19:22:00,
2013-02-09 09:31:00,66.0,65.0,-100.00,NNE,32,3.0,8.0,98,0.00,,,-99.99,185.000000,,2013-02-09 19:31:00,
2013-02-09 09:41:00,66.0,65.0,-100.00,NNE,32,3.0,8.0,98,0.00,,,-99.99,185.000000,,2013-02-09 19:41:00,
2013-02-09 09:52:00,66.0,65.0,-100.00,NNE,32,3.0,8.0,98,0.00,,,-99.99,185.000000,,2013-02-09 19:52:00,
2013-02-09 10:21:00,74.0,64.0,-100.00,ENE,58,6.0,12.0,72,0.00,,,0.00,451.000000,,2013-02-09 20:21:00,
2013-02-09 10:31:00,74.0,64.0,-100.00,ENE,58,6.0,12.0,72,0.00,,,0.00,451.000000,,2013-02-09 20:31:00,
2013-02-09 10:41:00,74.0,64.0,-100.00,ENE,58,6.0,12.0,72,0.00,,,0.00,451.000000,,2013-02-09 20:41:00,
2013-02-09 10:52:00,74.0,64.0,-100.00,ENE,58,6.0,12.0,72,0.00,,,0.00,451.000000,,2013-02-09 20:52:00,
2013-02-09 11:21:00,75.0,62.0,-100.00,ENE,57,8.0,18.0,65,0.00,,,0.00,759.000000,,2013-02-09 21:21:00,
2013-02-09 11:31:00,75.0,62.0,-100.00,ENE,57,8.0,18.0,65,0.00,,,0.00,759.000000,,2013-02-09 21:31:00,
2013-02-09 11:41:00,75.0,62.0,-100.00,ENE,57,8.0,18.0,65,0.00,,,0.00,759.000000,,2013-02-09 21:41:00,
2013-02-09 11:52:00,75.0,62.0,-100.00,ENE,57,8.0,18.0,65,0.00,,,0.00,759.000000,,2013-02-09 21:52:00,
2013-02-09 12:21:00,76.0,62.0,-100.00,ENE,71,9.0,22.0,63,0.00,,,0.00,867.000000,,2013-02-09 22:21:00,
2013-02-09 12:31:00,76.0,62.0,-100.00,ENE,71,9.0,22.0,63,0.00,,,0.00,867.000000,,2013-02-09 22:31:00,
2013-02-09 12:41:00,76.0,62.0,-100.00,ENE,71,9.0,22.0,63,0.00,,,0.00,867.000000,,2013-02-09 22:41:00,
2013-02-09 12:51:00,76.0,62.0,-100.00,ENE,71,9.0,22.0,63,0.00,,,0.00,867.000000,,2013-02-09 22:51:00,
2013-02-09 13:21:00,75.0,61.0,-100.00,ENE,65,10.0,22.0,61,0.00,,,-99.99,853.000000,,2013-02-09 23:21:00,
2013-02-09 13:31:00,75.0,61.0,-100.00,ENE,65,10.0,22.0,61,0.00,,,-99.99,853.000000,,2013-02-09 23:31:00,
2013-02-09 13:41:00,75.0,61.0,-100.00,ENE,65,10.0,22.0,61,0.00,,,-99.99,853.000000,,2013-02-09 23:41:00,
2013-02-09 13:52:00,75.0,61.0,-100.00,ENE,65,10.0,22.0,61,0.00,,,-99.99,853.000000,,2013-02-09 23:52:00,
2013-02-09 14:21:00,75.0,60.0,-100.00,ENE,59,8.0,20.0,60,0.00,,,0.00,934.000000,,2013-02-10 00:21:00,
2013-02-09 14:32:00,75.0,60.0,-100.00,ENE,59,8.0,20.0,60,0.00,,,0.00,934.000000,,2013-02-10 00:32:00,
2013-02-09 14:41:00,75.0,60.0,-100.00,ENE,59,8.0,20.0,60,0.00,,,0.00,934.000000,,2013-02-10 00:41:00,
2013-02-09 14:51:00,75.0,60.0,-100.00,ENE,59,8.0,20.0,60,0.00,,,0.00,934.000000,,2013-02-10 00:51:00,
2013-02-09 15:21:00,76.0,61.0,-100.00,NE,54,7.0,19.0,59,0.00,,,0.00,870.000000,,2013-02-10 01:21:00,
2013-02-09 15:31:00,76.0,61.0,-100.00,NE,54,7.0,19.0,59,0.00,,,0.00,870.000000,,2013-02-10 01:31:00,
2013-02-09 15:41:00,76.0,61.0,-100.00,NE,54,7.0,19.0,59,0.00,,,0.00,870.000000,,2013-02-10 01:41:00,
2013-02-09 15:51:00,76.0,61.0,-100.00,NE,54,7.0,19.0,59,0.00,,,0.00,870.000000,,2013-02-10 01:51:00,
2013-02-09 16:22:00,74.0,60.0,-100.00,ENE,58,7.0,20.0,62,0.00,,,0.00,734.000000,,2013-02-10 02:22:00,
2013-02-09 16:31:00,74.0,60.0,-100.00,ENE,58,7.0,20.0,62,0.00,,,0.00,734.000000,,2013-02-10 02:31:00,
2013-02-09 16:41:00,74.0,60.0,-100.00,ENE,58,7.0,20.0,62,0.00,,,0.00,734.000000,,2013-02-10 02:41:00,
2013-02-09 16:52:00,74.0,60.0,-100.00,ENE,58,7.0,20.0,62,0.00,,,0.00,734.000000,,2013-02-10 02:52:00,
2013-02-09 17:21:00,73.0,61.0,-100.00,NNE,33,8.0,20.0,66,0.00,,,0.00,495.000000,,2013-02-10 03:21:00,
2013-02-09 17:32:00,73.0,61.0,-100.00,NNE,33,8.0,20.0,66,0.00,,,0.00,495.000000,,2013-02-10 03:32:00,
2013-02-09 17:41:00,73.0,61.0,-100.00,NNE,33,8.0,20.0,66,0.00,,,0.00,495.000000,,2013-02-10 03:41:00,
2013-02-09 17:51:00,73.0,61.0,-100.00,NNE,33,8.0,20.0,66,0.00,,,0.00,495.000000,,2013-02-10 03:51:00,
2013-02-09 18:21:00,70.0,61.0,-100.00,ENE,66,6.0,17.0,74,0.00,,,0.00,215.000000,,2013-02-10 04:21:00,
2013-02-09 18:32:00,70.0,61.0,-100.00,ENE,66,6.0,17.0,74,0.00,,,0.00,215.000000,,2013-02-10 04:32:00,
2013-02-09 18:41:00,70.0,61.0,-100.00,ENE,66,6.0,17.0,74,0.00,,,0.00,215.000000,,2013-02-10 04:41:00,
2013-02-09 18:51:00,70.0,61.0,-100.00,ENE,66,6.0,17.0,74,0.00,,,0.00,215.000000,,2013-02-10 04:51:00,
2013-02-09 19:22:00,67.0,62.0,-100.00,NE,50,6.0,17.0,83,0.00,,,0.00,17.000000,,2013-02-10 05:22:00,
2013-02-09 19:31:00,67.0,62.0,-100.00,NE,50,6.0,17.0,83,0.00,,,0.00,17.000000,,2013-02-10 05:31:00,
2013-02-09 19:41:00,67.0,62.0,-100.00,NE,50,6.0,17.0,83,0.00,,,0.00,17.000000,,2013-02-10 05:41:00,
2013-02-09 19:52:00,67.0,62.0,-100.00,NE,50,6.0,17.0,83,0.00,,,0.00,17.000000,,2013-02-10 05:52:00,
2013-02-09 20:21:00,67.0,61.0,-100.00,NE,52,6.0,19.0,81,0.00,,,0.00,0.000000,,2013-02-10 06:21:00,
2013-02-09 20:32:00,67.0,61.0,-100.00,NE,52,6.0,19.0,81,0.00,,,0.00,0.000000,,2013-02-10 06:32:00,
2013-02-09 20:42:00,67.0,61.0,-100.00,NE,52,6.0,19.0,81,0.00,,,0.00,0.000000,,2013-02-10 06:42:00,
2013-02-09 20:51:00,67.0,61.0,-100.00,NE,52,6.0,19.0,81,0.00,,,0.00,0.000000,,2013-02-10 06:51:00,
2013-02-09 21:21:00,67.0,60.0,-100.00,ENE,74,8.0,20.0,77,0.01,,,0.01,0.000000,,2013-02-10 07:21:00,
2013-02-09 21:31:00,67.0,60.0,-100.00,ENE,74,8.0,20.0,77,0.01,,,0.01,0.000000,,2013-02-10 07:31:00,
2013-02-09 21:41:00,67.0,60.0,-100.00,ENE,74,8.0,20.0,77,0.01,,,0.01,0.000000,,2013-02-10 07:41:00,
2013-02-09 21:51:00,67.0,60.0,-100.00,ENE,74,8.0,20.0,77,0.01,,,0.01,0.000000,,2013-02-10 07:51:00,
2013-02-09 22:21:00,67.0,60.0,-100.00,ENE,64,6.0,20.0,79,0.00,,,0.01,0.000000,,2013-02-10 08:21:00,
2013-02-09 22:32:00,67.0,60.0,-100.00,ENE,64,6.0,20.0,79,0.00,,,0.01,0.000000,,2013-02-10 08:32:00,
2013-02-09 22:43:00,67.0,60.0,-100.00,ENE,64,6.0,20.0,79,0.00,,,0.01,0.000000,,2013-02-10 08:43:00,
2013-02-09 22:52:00,67.0,60.0,-100.00,ENE,64,6.0,20.0,79,0.00,,,0.01,0.000000,,2013-02-10 08:52:00,
2013-02-09 23:21:00,66.0,59.0,-100.00,ENE,69,8.0,16.0,79,0.00,,,0.01,0.000000,,2013-02-10 09:21:00,
2013-02-09 23:31:00,66.0,59.0,-100.00,ENE,69,8.0,16.0,79,0.00,,,0.01,0.000000,,2013-02-10 09:31:00,
2013-02-09 23:41:00,66.0,59.0,-100.00,ENE,69,8.0,16.0,79,0.00,,,0.01,0.000000,,2013-02-10 09:41:00,
2013-02-09 23:51:00,66.0,59.0,-100.00,ENE,69,8.0,16.0,79,0.00,,,0.01,0.000000,,2013-02-10 09:51:00,